Time;durP1;ratioP1;P1;durP2;ratioP2;P2;SDS_P1;SDS_P2;PMS_P1;PMS_P2;Temp;Humidity;BMP_temperature;BMP_pressure;BME280_temperature;BME280_humidity;BME280_pressure;Samples;Min_cycle;Max_cycle;Signal;HPM_P1;HPM_P2
2021/06/08 00:00:57;;;;;;;29.50;24.33;;;;;;;13.54;77.89;100273.47;5029574;28;20045;-68
2021/06/08 00:03:23;;;;;;;31.85;27.52;;;;;;;13.52;78.06;100268.22;5029537;28;20041;-68
2021/06/08 00:05:48;;;;;;;32.88;26.27;;;;;;;13.45;78.15;100272.16;5028656;28;20041;-68
2021/06/08 00:08:13;;;;;;;31.40;26.27;;;;;;;13.43;78.16;100266.06;5029552;28;20397;-68
2021/06/08 00:10:39;;;;;;;34.20;26.05;;;;;;;13.40;78.67;100278.63;5031172;28;20033;-68
2021/06/08 00:13:04;;;;;;;29.50;24.85;;;;;;;13.39;77.94;100272.50;5029984;28;20094;-68
2021/06/08 00:15:30;;;;;;;38.78;27.48;;;;;;;13.39;78.40;100267.19;5027503;28;20033;-68
2021/06/08 00:17:55;;;;;;;28.95;24.77;;;;;;;13.34;78.31;100271.00;5027464;28;20044;-68
2021/06/08 00:20:20;;;;;;;29.73;22.38;;;;;;;13.34;78.65;100276.28;5028768;28;20039;-68
2021/06/08 00:22:46;;;;;;;24.30;21.02;;;;;;;13.35;78.36;100278.88;5030633;28;20037;-69
2021/06/08 00:25:12;;;;;;;29.02;23.25;;;;;;;13.32;78.69;100271.94;5032163;28;20512;-67
2021/06/08 00:27:37;;;;;;;31.30;23.70;;;;;;;13.34;77.83;100274.53;5032232;28;20508;-68
2021/06/08 00:30:03;;;;;;;30.85;23.27;;;;;;;13.30;78.46;100272.97;5031444;28;20041;-67
2021/06/08 00:32:29;;;;;;;32.88;24.77;;;;;;;13.26;78.00;100272.22;5032037;28;20040;-69
2021/06/08 00:34:54;;;;;;;35.40;30.10;;;;;;;13.24;77.93;100275.88;5032309;28;20037;-68
2021/06/08 00:37:20;;;;;;;32.63;23.70;;;;;;;13.19;78.31;100269.97;5031495;28;20029;-67
2021/06/08 00:39:45;;;;;;;40.20;29.88;;;;;;;13.16;78.56;100272.78;5032156;28;20492;-67
2021/06/08 00:42:11;;;;;;;37.28;28.70;;;;;;;13.11;78.47;100271.22;5031944;28;20592;-67
2021/06/08 00:44:36;;;;;;;27.48;23.95;;;;;;;13.09;77.81;100266.94;5031941;28;20068;-67
2021/06/08 00:47:02;;;;;;;25.98;23.10;;;;;;;13.09;78.01;100266.94;5031573;28;20492;-67
2021/06/08 00:49:27;;;;;;;29.63;24.08;;;;;;;13.08;78.08;100267.91;5031895;28;20034;-67
2021/06/08 00:51:53;;;;;;;36.78;29.88;;;;;;;13.01;78.86;100270.00;5031542;28;20037;-67
2021/06/08 00:54:18;;;;;;;35.53;28.13;;;;;;;12.98;78.32;100267.53;5031704;28;20495;-67
2021/06/08 00:56:45;;;;;;;33.55;27.77;;;;;;;12.94;79.05;100265.94;5031624;28;20112;-68
2021/06/08 00:59:12;;;;;;;36.30;27.92;;;;;;;12.93;78.43;100266.91;5031332;28;20041;-67
2021/06/08 01:01:38;;;;;;;27.13;22.10;;;;;;;12.96;78.29;100261.44;5004976;28;20457;-67
2021/06/08 01:04:05;;;;;;;33.67;26.50;;;;;;;12.98;78.25;100272.81;5031033;28;20034;-68
2021/06/08 01:06:35;;;;;;;40.45;29.63;;;;;;;12.93;78.22;100271.34;5030610;28;20033;-68
2021/06/08 01:09:01;;;;;;;33.83;26.48;;;;;;;12.86;78.68;100269.00;5031297;28;20037;-68
2021/06/08 01:11:26;;;;;;;35.00;25.25;;;;;;;12.82;78.75;100270.09;5031615;28;20105;-69
2021/06/08 01:13:52;;;;;;;30.48;24.65;;;;;;;12.76;79.18;100277.50;5031766;28;20037;-69
2021/06/08 01:16:17;;;;;;;36.05;27.75;;;;;;;12.75;78.50;100271.34;5029628;28;20886;-68
2021/06/08 01:18:42;;;;;;;29.15;21.38;;;;;;;12.80;78.78;100271.13;5043780;28;20036;-68
2021/06/08 01:21:09;;;;;;;32.42;25.27;;;;;;;12.78;78.47;100272.97;5050893;28;20052;-68
2021/06/08 01:23:36;;;;;;;36.70;29.17;;;;;;;12.75;78.31;100273.13;5050083;28;20056;-68
2021/06/08 01:26:03;;;;;;;39.38;28.42;;;;;;;12.73;78.75;100273.22;5051076;28;20037;-68
2021/06/08 01:28:32;;;;;;;31.80;23.73;;;;;;;12.69;78.74;100269.00;5050748;28;20036;-68
2021/06/08 01:30:58;;;;;;;31.45;24.02;;;;;;;12.69;78.75;100276.94;5051283;28;20504;-68
2021/06/08 01:33:25;;;;;;;37.60;27.35;;;;;;;12.68;78.96;100277.88;5050560;28;20035;-68
2021/06/08 01:35:52;;;;;;;36.17;28.65;;;;;;;12.67;79.24;100276.16;5050113;28;20056;-68
2021/06/08 01:38:19;;;;;;;28.85;22.80;;;;;;;12.63;79.16;100274.59;5050796;28;20033;-69
2021/06/08 01:40:47;;;;;;;26.08;22.10;;;;;;;12.62;78.96;100281.66;5050869;28;20037;-68
2021/06/08 01:43:16;;;;;;;32.58;24.67;;;;;;;12.61;79.46;100282.59;5050664;28;20056;-69
2021/06/08 01:45:47;;;;;;;30.70;26.88;;;;;;;12.57;78.85;100281.03;5055379;28;20042;-69
2021/06/08 01:48:12;;;;;;;30.92;26.95;;;;;;;12.59;78.76;100276.53;5063139;28;20033;-68
2021/06/08 01:50:38;;;;;;;35.20;26.30;;;;;;;12.57;78.45;100273.09;5055863;28;20427;-69
2021/06/08 01:53:09;;;;;;;27.45;21.00;;;;;;;12.58;78.30;100273.97;5052204;28;20036;-69
2021/06/08 01:55:39;;;;;;;31.48;26.38;;;;;;;12.57;78.50;100274.91;5048745;28;20048;-68
2021/06/08 01:58:13;;;;;;;30.92;23.05;;;;;;;12.59;78.90;100280.97;5050411;28;20033;-69
2021/06/08 02:01:03;;;;;;;28.05;24.02;;;;;;;12.58;78.81;100274.84;5050153;28;20121;-69
2021/06/08 02:03:38;;;;;;;30.02;24.13;;;;;;;12.58;79.06;100274.84;5050443;28;20108;-68
2021/06/08 02:06:32;;;;;;;31.88;22.85;;;;;;;12.56;79.48;100278.50;5049942;28;20112;-68
2021/06/08 02:09:31;;;;;;;30.70;23.15;;;;;;;12.53;78.63;100284.78;5026325;28;20040;-69
2021/06/08 02:12:04;;;;;;;26.80;22.80;;;;;;;12.52;79.04;100283.06;5049751;28;20037;-68
2021/06/08 02:15:04;;;;;;;34.72;25.27;;;;;;;12.53;78.86;100283.91;5050202;28;20515;-67
2021/06/08 02:17:43;;;;;;;38.72;27.45;;;;;;;12.52;79.24;100285.69;5050222;28;20041;-67
2021/06/08 02:20:33;;;;;;;28.48;23.08;;;;;;;12.56;78.97;100289.91;5050846;28;20079;-68
2021/06/08 02:23:01;;;;;;;40.75;26.35;;;;;;;12.53;79.48;100283.91;5050405;28;20040;-69
2021/06/08 02:25:29;;;;;;;27.33;23.65;;;;;;;12.53;78.87;100284.78;5050167;28;20051;-68
2021/06/08 02:27:57;;;;;;;28.67;23.35;;;;;;;12.57;78.92;100277.53;5049774;28;20556;-68
2021/06/08 02:30:23;;;;;;;30.70;23.08;;;;;;;12.59;79.16;100284.47;5049999;28;20186;-68
2021/06/08 02:32:51;;;;;;;27.42;22.60;;;;;;;12.61;79.13;100279.97;5048081;28;20091;-69
2021/06/08 02:35:19;;;;;;;25.95;21.65;;;;;;;12.61;78.93;100287.06;5049555;28;20044;-68
2021/06/08 02:37:46;;;;;;;33.38;25.45;;;;;;;12.62;78.75;100286.09;5049636;28;20070;-67
2021/06/08 02:40:13;;;;;;;28.65;22.10;;;;;;;12.63;78.81;100290.47;5048395;28;20025;-68
2021/06/08 02:42:41;;;;;;;30.75;23.75;;;;;;;12.64;78.87;100289.53;5048984;28;20492;-67
2021/06/08 02:45:07;;;;;;;29.85;24.67;;;;;;;12.68;78.92;100288.47;5048870;28;20403;-68
2021/06/08 02:47:35;;;;;;;25.27;21.40;;;;;;;12.69;78.84;100292.81;5049847;28;20029;-69
2021/06/08 02:50:01;;;;;;;27.98;22.23;;;;;;;12.75;78.43;100294.28;5049601;28;20365;-68
2021/06/08 02:52:28;;;;;;;28.35;22.98;;;;;;;12.78;78.65;100289.72;5049404;28;20508;-69
2021/06/08 02:54:55;;;;;;;35.60;27.35;;;;;;;12.81;78.59;100294.00;5045131;28;20033;-69
2021/06/08 02:57:22;;;;;;;27.02;22.02;;;;;;;12.83;78.54;100292.97;5009776;28;20042;-69
2021/06/08 02:59:51;;;;;;;31.88;24.08;;;;;;;12.87;79.27;100293.66;5010164;28;20490;-69
2021/06/08 03:02:18;;;;;;;32.47;25.10;;;;;;;12.88;79.19;100288.31;5008675;28;20116;-69
2021/06/08 03:04:51;;;;;;;26.23;22.80;;;;;;;12.94;79.29;100281.84;5009778;28;20034;-69
2021/06/08 03:07:18;;;;;;;31.00;22.92;;;;;;;13.01;78.39;100285.88;5013105;28;20041;-69
2021/06/08 03:09:55;;;;;;;26.90;21.38;;;;;;;13.05;78.74;100290.09;5027518;28;20038;-69
2021/06/08 03:12:24;;;;;;;28.83;23.02;;;;;;;13.06;78.66;100286.50;5029569;28;20040;-67
2021/06/08 03:14:51;;;;;;;29.38;25.60;;;;;;;13.13;78.17;100286.19;5029751;28;20040;-70
2021/06/08 03:17:21;;;;;;;26.58;22.05;;;;;;;13.15;78.57;100287.81;5028925;28;20382;-69
2021/06/08 03:19:48;;;;;;;37.05;27.00;;;;;;;13.17;78.96;100285.09;5029314;28;20072;-68
2021/06/08 03:22:17;;;;;;;30.15;22.30;;;;;;;13.18;79.24;100289.47;5029317;28;20029;-68
2021/06/08 03:24:46;;;;;;;25.60;21.95;;;;;;;13.22;78.40;100289.22;5029212;28;20508;-67
2021/06/08 03:27:13;;;;;;;30.70;25.45;;;;;;;13.27;78.88;100291.66;5028847;28;20420;-68
2021/06/08 03:29:39;;;;;;;32.53;25.60;;;;;;;13.29;78.95;100285.34;5029192;28;20460;-67
2021/06/08 03:32:06;;;;;;;29.33;22.50;;;;;;;13.33;78.53;100286.03;5029432;28;20033;-68
2021/06/08 03:34:33;;;;;;;30.02;20.83;;;;;;;13.37;78.89;100287.59;5029994;28;20034;-68
2021/06/08 03:37:01;;;;;;;24.02;19.52;;;;;;;13.41;78.88;100290.94;5028569;28;20026;-68
2021/06/08 03:39:28;;;;;;;29.88;24.60;;;;;;;13.45;78.16;100289.84;5029379;28;20040;-69
2021/06/08 03:41:54;;;;;;;33.05;26.33;;;;;;;13.45;78.80;100293.34;5029538;28;20037;-68
2021/06/08 03:44:20;;;;;;;24.52;19.98;;;;;;;13.45;78.83;100289.84;5029237;28;20083;-68
2021/06/08 03:46:47;;;;;;;24.92;21.50;;;;;;;13.48;78.59;100294.97;5026919;28;20041;-68
2021/06/08 03:49:14;;;;;;;28.63;22.98;;;;;;;13.45;78.81;100297.78;5029657;28;20117;-69
2021/06/08 03:51:40;;;;;;;27.60;23.10;;;;;;;13.46;78.97;100304.78;5029861;28;20025;-68
2021/06/08 03:54:06;;;;;;;20.23;17.08;;;;;;;13.46;79.03;100302.13;5029856;28;20432;-69
2021/06/08 03:56:33;;;;;;;29.65;24.80;;;;;;;13.44;79.45;100307.53;5029162;28;20064;-68
2021/06/08 03:58:59;;;;;;;26.15;21.88;;;;;;;13.45;79.03;100311.03;5033029;28;20095;-69
2021/06/08 04:01:26;;;;;;;27.17;21.02;;;;;;;13.48;78.80;100309.06;5033055;28;20114;-69
2021/06/08 04:03:53;;;;;;;28.58;23.60;;;;;;;13.50;79.05;100307.19;5032998;28;20033;-70
2021/06/08 04:06:19;;;;;;;30.23;25.50;;;;;;;13.52;79.17;100309.75;5033411;28;20501;-70
2021/06/08 04:08:45;;;;;;;29.35;23.67;;;;;;;13.49;79.08;100305.50;5042434;28;20135;-70
2021/06/08 04:11:11;;;;;;;29.45;23.50;;;;;;;13.55;79.41;100311.41;5044421;28;20563;-67
2021/06/08 04:13:40;;;;;;;27.83;23.70;;;;;;;13.56;79.27;100310.44;5046393;28;20056;-70
2021/06/08 04:16:08;;;;;;;31.50;26.88;;;;;;;13.58;79.36;100304.13;5036506;28;20049;-71
2021/06/08 04:18:36;;;;;;;32.58;23.73;;;;;;;13.63;79.39;100304.72;5035604;28;20034;-68
2021/06/08 04:21:03;;;;;;;34.75;27.65;;;;;;;13.64;79.49;100308.25;5034025;28;20057;-70
2021/06/08 04:23:29;;;;;;;31.48;23.48;;;;;;;13.70;78.93;100311.41;5035368;28;20034;-69
2021/06/08 04:25:56;;;;;;;29.00;23.50;;;;;;;13.78;78.92;100312.81;5035081;28;20060;-68
2021/06/08 04:28:23;;;;;;;32.90;26.20;;;;;;;13.83;79.05;100308.09;5034255;28;20033;-69
2021/06/08 04:30:50;;;;;;;29.13;24.13;;;;;;;13.91;79.17;100309.41;5035596;28;20045;-70
2021/06/08 04:33:27;;;;;;;24.80;21.50;;;;;;;14.03;78.48;100307.88;5034787;28;20120;-70
2021/06/08 04:35:52;;;;;;;26.92;21.45;;;;;;;14.15;78.23;100311.63;5033876;28;20041;-70
2021/06/08 04:38:18;;;;;;;27.55;22.75;;;;;;;14.24;78.11;100311.13;5034767;28;20042;-69
2021/06/08 04:40:45;;;;;;;27.45;24.25;;;;;;;14.34;77.98;100308.81;5034437;28;20112;-69
2021/06/08 04:43:11;;;;;;;36.25;28.38;;;;;;;14.43;77.50;100313.59;5033497;28;20033;-69
2021/06/08 04:45:37;;;;;;;23.83;21.30;;;;;;;14.48;78.13;100311.53;5033483;28;20396;-69
2021/06/08 04:48:02;;;;;;;26.85;22.10;;;;;;;14.60;77.61;100310.03;5032719;28;20033;-69
2021/06/08 04:50:28;;;;;;;30.60;25.17;;;;;;;14.69;77.59;100312.13;5033210;28;20489;-70
2021/06/08 04:52:56;;;;;;;31.60;25.50;;;;;;;14.80;77.02;100308.88;5032524;28;20038;-69
2021/06/08 04:55:24;;;;;;;29.42;22.63;;;;;;;14.93;77.24;100311.66;5032117;28;20083;-69
2021/06/08 04:57:52;;;;;;;35.30;29.73;;;;;;;14.99;76.80;100308.66;5031943;28;20029;-69
2021/06/08 05:00:18;;;;;;;35.78;28.73;;;;;;;15.08;76.53;100305.44;5031961;28;20032;-68
2021/06/08 05:03:05;;;;;;;31.08;25.83;;;;;;;15.17;76.76;100304.88;5032136;28;20037;-68
2021/06/08 05:05:35;;;;;;;33.47;27.33;;;;;;;15.29;76.09;100311.25;5031350;28;20488;-69
2021/06/08 05:08:10;;;;;;;29.73;25.30;;;;;;;15.36;76.17;100309.94;5031529;28;20038;-69
2021/06/08 05:10:43;;;;;;;35.75;28.63;;;;;;;15.38;75.83;100304.53;5032229;28;20396;-68
2021/06/08 05:13:11;;;;;;;28.73;25.70;;;;;;;15.42;76.22;100309.56;5032933;28;20037;-69
2021/06/08 05:15:38;;;;;;;37.53;28.35;;;;;;;15.46;75.95;100307.59;5030084;28;20033;-68
2021/06/08 05:18:11;;;;;;;31.85;25.77;;;;;;;15.53;75.81;100308.94;5031410;28;20033;-68
2021/06/08 05:20:39;;;;;;;33.35;27.45;;;;;;;15.62;75.67;100302.16;5031155;28;20144;-69
2021/06/08 05:23:06;;;;;;;31.67;24.23;;;;;;;15.66;75.63;100304.53;5032044;28;20104;-69
2021/06/08 05:25:32;;;;;;;29.08;24.08;;;;;;;15.71;75.43;100296.31;5031256;28;20026;-69
2021/06/08 05:27:58;;;;;;;33.08;27.45;;;;;;;15.77;75.40;100292.41;5031272;28;20037;-68
2021/06/08 05:30:24;;;;;;;25.10;21.80;;;;;;;15.85;75.11;100298.09;5031490;28;20045;-67
2021/06/08 05:32:50;;;;;;;31.23;26.08;;;;;;;15.95;74.67;100298.38;5031169;28;20156;-68
2021/06/08 05:35:25;;;;;;;31.17;24.58;;;;;;;16.03;75.12;100306.75;5030953;28;20049;-69
2021/06/08 05:37:50;;;;;;;34.35;27.23;;;;;;;16.06;74.77;100307.38;5031016;28;20030;-68
2021/06/08 05:40:16;;;;;;;32.00;27.17;;;;;;;16.09;74.87;100298.34;5031082;28;20084;-69
2021/06/08 05:42:41;;;;;;;34.22;28.60;;;;;;;16.13;75.20;100304.34;5030972;28;20413;-69
2021/06/08 05:45:07;;;;;;;31.75;25.20;;;;;;;16.10;75.21;100305.41;5031079;28;20037;-69
2021/06/08 05:47:33;;;;;;;31.10;26.60;;;;;;;16.16;75.31;100312.13;5031225;28;20037;-69
2021/06/08 05:49:58;;;;;;;31.17;26.27;;;;;;;16.23;74.96;100313.44;5030733;28;20512;-68
2021/06/08 05:52:25;;;;;;;30.88;24.55;;;;;;;16.30;75.08;100312.94;5031103;28;20454;-68
2021/06/08 05:54:52;;;;;;;28.40;24.58;;;;;;;16.37;75.03;100315.22;5030815;28;20519;-69
2021/06/08 05:57:18;;;;;;;30.05;25.95;;;;;;;16.41;74.53;100314.91;5029937;28;20500;-70
2021/06/08 05:59:43;;;;;;;29.13;26.10;;;;;;;16.45;74.72;100319.06;5030563;28;20152;-69
2021/06/08 06:02:14;;;;;;;30.63;26.13;;;;;;;16.46;74.59;100318.09;5030836;28;20032;-67
2021/06/08 06:04:43;;;;;;;30.60;26.80;;;;;;;16.49;74.45;100311.72;5030614;28;20109;-69
2021/06/08 06:07:09;;;;;;;27.15;23.95;;;;;;;16.50;74.71;100316.97;5030028;28;20051;-67
2021/06/08 06:09:35;;;;;;;34.08;25.92;;;;;;;16.55;73.87;100313.16;5026045;28;20037;-67
2021/06/08 06:12:01;;;;;;;35.28;28.02;;;;;;;16.60;73.86;100317.22;5030283;28;20453;-68
2021/06/08 06:14:28;;;;;;;34.70;29.90;;;;;;;16.63;73.60;100321.47;5029864;28;20029;-68
2021/06/08 06:16:54;;;;;;;40.55;31.92;;;;;;;16.77;73.30;100324.09;5029763;28;20071;-68
2021/06/08 06:19:24;;;;;;;39.78;33.13;;;;;;;17.05;72.50;100324.94;5030172;28;20056;-68
2021/06/08 06:21:55;;;;;;;325.92;93.78;;;;;;;17.54;70.98;100324.22;5030220;28;20057;-68
2021/06/08 06:24:21;;;;;;;40.35;31.27;;;;;;;17.90;69.49;100319.97;5030023;28;20026;-69
2021/06/08 06:26:47;;;;;;;33.47;28.70;;;;;;;18.24;67.71;100321.91;5029832;28;20044;-69
2021/06/08 06:29:14;;;;;;;42.08;33.72;;;;;;;18.40;65.86;100323.47;5029472;28;20033;-69
2021/06/08 06:31:49;;;;;;;40.88;28.23;;;;;;;18.65;65.97;100314.50;5028812;28;20049;-69
2021/06/08 06:34:18;;;;;;;37.50;32.40;;;;;;;18.81;62.75;100317.75;5030103;28;20458;-69
2021/06/08 06:36:48;;;;;;;41.35;34.85;;;;;;;19.08;62.59;100317.50;5029872;28;20121;-69
2021/06/08 06:39:20;;;;;;;34.35;29.17;;;;;;;19.35;61.87;100329.72;5030141;28;20040;-69
2021/06/08 06:41:49;;;;;;;35.78;31.15;;;;;;;19.60;59.57;100320.63;5030024;28;20514;-69
2021/06/08 06:44:17;;;;;;;33.83;29.65;;;;;;;20.01;57.58;100323.69;5030145;28;20037;-68
2021/06/08 06:46:44;;;;;;;30.50;27.13;;;;;;;20.37;55.41;100327.91;5029542;28;20064;-68
2021/06/08 06:49:11;;;;;;;30.10;25.45;;;;;;;20.63;55.64;100325.81;5029706;28;20040;-68
2021/06/08 06:51:37;;;;;;;26.63;23.70;;;;;;;20.72;55.62;100326.84;5029953;28;20034;-68
2021/06/08 06:54:03;;;;;;;39.65;29.42;;;;;;;20.81;54.92;100334.13;5029701;28;20108;-68
2021/06/08 06:56:29;;;;;;;31.45;27.88;;;;;;;20.80;54.87;100330.59;5029323;28;20037;-68
2021/06/08 06:58:56;;;;;;;34.90;26.23;;;;;;;20.80;55.06;100327.94;5029321;28;20048;-68
2021/06/08 07:01:23;;;;;;;31.48;26.75;;;;;;;20.86;55.02;100339.97;5029003;28;20488;-68
2021/06/08 07:03:57;;;;;;;29.52;25.80;;;;;;;21.01;54.79;100332.47;5027100;28;20045;-69
2021/06/08 07:06:24;;;;;;;37.95;29.50;;;;;;;21.08;54.11;100325.59;5029211;28;20026;-68
2021/06/08 07:08:55;;;;;;;33.95;26.42;;;;;;;21.21;53.55;100330.75;5028974;28;20520;-68
2021/06/08 07:11:21;;;;;;;35.55;27.70;;;;;;;21.30;52.90;100326.47;5028795;28;20400;-68
2021/06/08 07:13:47;;;;;;;31.08;25.60;;;;;;;21.55;52.80;100323.38;5029088;28;20121;-68
2021/06/08 07:16:14;;;;;;;32.88;24.60;;;;;;;21.52;52.79;100326.34;5029300;28;20492;-68
2021/06/08 07:18:41;;;;;;;29.95;23.50;;;;;;;21.89;51.42;100328.50;5029803;28;20044;-68
2021/06/08 07:21:07;;;;;;;33.10;28.08;;;;;;;21.97;50.76;100325.13;5029437;28;20087;-67
2021/06/08 07:23:33;;;;;;;31.45;28.02;;;;;;;21.92;50.59;100316.63;5029364;28;20033;-67
2021/06/08 07:25:59;;;;;;;28.80;23.50;;;;;;;22.23;50.59;100317.47;5029245;28;20076;-67
2021/06/08 07:28:25;;;;;;;33.50;25.20;;;;;;;22.62;47.98;100313.03;5029311;28;20056;-69
2021/06/08 07:30:51;;;;;;;27.70;24.80;;;;;;;22.99;47.39;100320.41;5029463;28;20519;-69
2021/06/08 07:33:31;;;;;;;26.80;23.48;;;;;;;23.51;45.87;100315.50;5032549;28;20034;-68
2021/06/08 07:36:21;;;;;;;29.63;24.08;;;;;;;24.19;44.19;100315.25;5032784;28;20041;-67
2021/06/08 07:39:00;;;;;;;32.60;24.60;;;;;;;24.69;43.42;100319.34;5033530;28;20033;-69
2021/06/08 07:41:36;;;;;;;25.02;21.60;;;;;;;25.07;42.86;100315.44;5031877;28;20030;-68
2021/06/08 07:44:04;;;;;;;34.85;23.83;;;;;;;25.23;41.83;100319.34;5031528;28;20046;-70
2021/06/08 07:46:31;;;;;;;29.90;22.70;;;;;;;25.38;40.67;100312.34;5031725;28;20033;-69
2021/06/08 07:48:58;;;;;;;26.83;22.55;;;;;;;25.38;40.67;100312.34;5033134;28;20397;-69
2021/06/08 07:51:27;;;;;;;34.67;22.60;;;;;;;25.18;41.69;100313.53;5032860;28;20060;-70
2021/06/08 07:53:53;;;;;;;22.92;18.15;;;;;;;25.11;42.16;100323.25;5031941;28;20049;-67
2021/06/08 07:56:21;;;;;;;27.08;20.90;;;;;;;25.44;41.11;100322.50;5031497;28;20056;-71
2021/06/08 07:58:47;;;;;;;24.02;21.52;;;;;;;25.51;40.88;100319.19;5032838;28;20606;-69
2021/06/08 08:01:14;;;;;;;23.05;20.65;;;;;;;25.07;41.52;100318.16;5033635;28;20037;-69
2021/06/08 08:03:40;;;;;;;24.92;20.42;;;;;;;25.23;41.24;100319.34;5033652;28;20087;-68
2021/06/08 08:06:11;;;;;;;24.33;19.50;;;;;;;25.15;41.50;100317.38;5032623;28;20033;-67
2021/06/08 08:08:37;;;;;;;23.35;18.58;;;;;;;25.09;40.95;100319.88;5032914;28;20039;-68
2021/06/08 08:11:13;;;;;;;18.85;16.40;;;;;;;24.10;42.17;100321.53;5033156;28;20037;-69
2021/06/08 08:13:41;;;;;;;22.45;17.45;;;;;;;23.60;43.90;100318.31;5034843;28;20037;-68
2021/06/08 08:16:09;;;;;;;24.90;19.38;;;;;;;23.12;45.26;100320.13;5033041;28;20091;-70
2021/06/08 08:18:36;;;;;;;28.95;21.33;;;;;;;23.06;45.54;100320.66;5031835;28;20053;-69
2021/06/08 08:21:02;;;;;;;23.65;18.33;;;;;;;23.47;44.56;100322.16;5032640;28;20033;-68
2021/06/08 08:23:30;;;;;;;18.42;15.70;;;;;;;23.19;45.04;100315.03;5032736;28;20253;-68
2021/06/08 08:25:56;;;;;;;18.40;16.15;;;;;;;23.97;42.61;100315.63;5031840;28;20056;-69
2021/06/08 08:28:24;;;;;;;20.83;14.18;;;;;;;24.35;41.28;100311.03;5032571;28;20029;-69
2021/06/08 08:30:50;;;;;;;18.13;16.30;;;;;;;24.71;40.45;100309.25;5033233;28;20095;-69
2021/06/08 08:33:16;;;;;;;18.25;13.95;;;;;;;24.99;39.92;100296.50;5032789;28;20034;-69
2021/06/08 08:35:41;;;;;;;18.98;13.88;;;;;;;25.02;40.01;100296.19;5032253;28;20049;-68
2021/06/08 08:38:07;;;;;;;16.55;14.88;;;;;;;24.92;38.39;100300.84;5032637;28;20041;-69
2021/06/08 08:40:33;;;;;;;14.65;12.05;;;;;;;24.25;40.30;100310.25;5032340;28;20043;-69
2021/06/08 08:43:01;;;;;;;16.35;13.60;;;;;;;23.60;42.17;100313.75;5031458;28;20118;-70
2021/06/08 08:45:28;;;;;;;17.13;13.20;;;;;;;23.20;43.40;100306.78;5029958;28;20021;-68
2021/06/08 08:47:55;;;;;;;23.23;13.40;;;;;;;23.20;43.95;100306.78;5031965;28;20349;-69
2021/06/08 08:50:22;;;;;;;20.25;16.90;;;;;;;22.85;44.70;100304.69;5031942;28;20107;-69
2021/06/08 08:52:57;;;;;;;20.65;17.65;;;;;;;22.72;45.62;100313.03;5032064;28;20045;-68
2021/06/08 08:55:26;;;;;;;;;;;;;;;22.54;46.30;100307.47;5032176;28;20476;-69
2021/06/08 08:57:54;;;;;;;19.42;16.75;;;;;;;22.85;44.26;100302.00;5031633;28;19970;-68
2021/06/08 09:00:22;;;;;;;22.25;15.35;;;;;;;22.71;44.15;100306.78;5031041;28;20029;-68
2021/06/08 09:02:49;;;;;;;17.30;11.95;;;;;;;23.57;43.78;100300.59;5031143;28;20034;-69
2021/06/08 09:05:14;;;;;;;25.95;15.00;;;;;;;24.32;41.13;100300.56;5031221;28;20503;-69
2021/06/08 09:07:40;;;;;;;15.32;13.80;;;;;;;25.05;38.91;100290.47;5031850;28;20132;-69
2021/06/08 09:10:09;;;;;;;15.93;11.60;;;;;;;25.95;36.92;100297.50;5030558;28;20385;-69
2021/06/08 09:12:36;;;;;;;14.48;11.13;;;;;;;26.58;34.90;100297.00;5031125;28;20038;-70
2021/06/08 09:15:04;;;;;;;22.48;10.18;;;;;;;27.25;34.22;100290.63;5031578;28;20547;-68
2021/06/08 09:17:30;;;;;;;13.45;11.93;;;;;;;27.40;33.69;100283.50;5031262;28;20041;-69
2021/06/08 09:19:56;;;;;;;12.38;11.07;;;;;;;27.90;33.15;100285.06;5030612;28;20033;-69
2021/06/08 09:22:22;;;;;;;11.75;10.52;;;;;;;28.06;33.06;100278.72;5030961;28;20033;-66
2021/06/08 09:24:54;;;;;;;16.55;12.45;;;;;;;28.37;32.23;100283.28;5030385;28;20128;-69
2021/06/08 09:27:27;;;;;;;14.35;12.43;;;;;;;29.19;31.60;100283.56;5030554;28;20030;-68
2021/06/08 09:29:52;;;;;;;14.38;10.88;;;;;;;29.88;30.58;100285.19;5031368;28;20033;-69
2021/06/08 09:32:21;;;;;;;14.67;10.47;;;;;;;30.27;28.94;100273.97;5031233;28;20030;-69
2021/06/08 09:34:49;;;;;;;13.45;11.02;;;;;;;30.44;28.65;100273.75;5031214;28;20265;-69
2021/06/08 09:37:15;;;;;;;10.48;9.35;;;;;;;30.05;29.57;100274.94;5030672;28;20037;-69
2021/06/08 09:39:46;;;;;;;15.65;11.23;;;;;;;28.79;31.73;100279.28;5031337;28;20048;-69
2021/06/08 09:42:38;;;;;;;41.78;16.08;;;;;;;28.69;32.11;100263.25;5030471;28;20065;-69
2021/06/08 09:45:15;;;;;;;13.32;11.75;;;;;;;29.23;31.32;100265.84;5030348;28;20114;-68
2021/06/08 09:47:42;;;;;;;15.27;13.70;;;;;;;29.28;31.01;100266.13;5030423;28;20065;-69
2021/06/08 09:50:29;;;;;;;17.13;12.30;;;;;;;29.37;30.70;100257.91;5030986;28;20041;-70
2021/06/08 09:53:23;;;;;;;14.38;12.88;;;;;;;29.75;29.67;100251.34;5030159;28;20030;-68
2021/06/08 09:55:51;;;;;;;14.05;10.65;;;;;;;30.17;29.51;100262.53;5029544;28;20038;-69
2021/06/08 09:58:17;;;;;;;13.25;10.13;;;;;;;29.50;30.81;100263.53;5030466;28;20061;-69
2021/06/08 10:00:42;;;;;;;15.32;10.50;;;;;;;28.69;31.34;100258.66;5030341;28;20037;-68
2021/06/08 10:03:08;;;;;;;12.25;10.48;;;;;;;29.03;31.00;100245.66;5030129;28;20037;-68
2021/06/08 10:05:33;;;;;;;15.25;11.25;;;;;;;28.63;30.58;100258.56;5029988;28;20048;-67
2021/06/08 10:07:59;;;;;;;17.63;10.32;;;;;;;27.56;33.11;100260.94;5030536;28;20129;-67
2021/06/08 10:10:40;;;;;;;15.63;11.38;;;;;;;26.80;34.48;100260.34;5030307;28;20063;-69
2021/06/08 10:13:10;;;;;;;12.80;9.48;;;;;;;27.15;33.74;100259.16;5029715;28;20064;-68
2021/06/08 10:15:35;;;;;;;14.02;11.60;;;;;;;27.76;31.88;100254.09;5029909;28;20120;-68
2021/06/08 10:18:02;;;;;;;17.57;10.50;;;;;;;28.36;30.90;100255.31;5029685;28;20151;-68
2021/06/08 10:20:31;;;;;;;10.55;9.45;;;;;;;29.24;30.29;100248.53;5030271;28;20278;-68
2021/06/08 10:22:57;;;;;;;13.93;10.93;;;;;;;29.76;29.60;100249.50;5030048;28;20083;-68
2021/06/08 10:25:23;;;;;;;15.02;11.90;;;;;;;29.80;29.43;100245.34;5029995;28;20117;-67
2021/06/08 10:27:49;;;;;;;16.05;12.68;;;;;;;29.77;29.17;100251.16;5029771;28;20121;-68
2021/06/08 10:30:15;;;;;;;12.18;10.85;;;;;;;30.02;29.42;100250.84;5030208;28;20551;-69
2021/06/08 10:32:40;;;;;;;12.18;10.73;;;;;;;30.45;28.25;100251.78;5030498;28;20029;-69
2021/06/08 10:35:08;;;;;;;12.80;9.95;;;;;;;30.74;27.75;100249.94;5029845;28;20044;-68
2021/06/08 10:37:34;;;;;;;15.00;11.02;;;;;;;30.71;27.92;100255.78;5029592;28;20520;-69
2021/06/08 10:40:00;;;;;;;12.50;10.57;;;;;;;30.68;27.32;100251.59;5029930;28;20106;-69
2021/06/08 10:42:27;;;;;;;11.38;7.88;;;;;;;29.41;29.36;100251.91;5029173;28;20489;-68
2021/06/08 10:45:06;;;;;;;16.70;10.27;;;;;;;29.57;29.00;100250.88;5029734;28;20144;-68
2021/06/08 10:47:38;;;;;;;11.73;9.52;;;;;;;29.94;28.04;100246.38;5029665;28;20045;-68
2021/06/08 10:50:24;;;;;;;17.05;8.00;;;;;;;30.08;25.66;100245.50;5029775;28;20034;-68
2021/06/08 10:52:50;;;;;;;9.05;5.43;;;;;;;30.18;25.59;100247.91;5029558;28;20037;-68
2021/06/08 10:55:18;;;;;;;12.30;6.03;;;;;;;30.35;24.82;100249.38;5029574;28;20076;-68
2021/06/08 10:57:48;;;;;;;8.25;6.35;;;;;;;30.08;25.32;100241.94;5030004;28;20651;-68
2021/06/08 11:00:31;;;;;;;8.57;7.28;;;;;;;29.14;25.85;100253.38;5028590;28;20047;-68
2021/06/08 11:03:01;;;;;;;7.43;6.55;;;;;;;28.70;27.46;100248.66;5029887;28;20503;-68
2021/06/08 11:05:46;;;;;;;9.27;7.47;;;;;;;27.98;28.96;100244.34;5030547;28;20030;-70
2021/06/08 11:08:12;;;;;;;8.55;6.85;;;;;;;27.51;29.90;100241.66;5032533;28;20574;-68
2021/06/08 11:10:42;;;;;;;9.35;7.05;;;;;;;27.31;30.80;100243.91;5031253;28;20477;-68
2021/06/08 11:13:07;;;;;;;8.88;7.32;;;;;;;27.16;30.52;100244.59;5032603;28;20029;-68
2021/06/08 11:15:33;;;;;;;10.45;8.13;;;;;;;26.72;31.42;100244.97;5032654;28;20052;-68